Aérodrome de Lacave le Frau

FR-0394 · Lot, Occitanie, França

História da METAR FR-0394 · Aérodrome de Lacave le Frau

Abaixo você vê METARs dos últimos dias. Selecione um ano para navegar pelos METARs mais antigos, a partir do ano 2007.

29 de novembro de 2022

Hora Código Clima Temp. Visibilidade Tecto Vento METAR/SPECI
13:00
I
7 °C 10 km+ 700 ft 360° 360° 5 kt METAR LFSL 291200Z AUTO 36005KT 330V030 9999 BKN007 OVC015 07/06 Q1020 NOSIG
12:30
I
7 °C 10 km+ 900 ft 320° 320° 6 kt METAR LFSL 291130Z AUTO 32006KT 280V350 9999 OVC009 07/06 Q1020 BECMG BKN010
12:00
I
7 °C 10 km+ 700 ft 340° 340° 4 kt METAR LFSL 291100Z AUTO 34004KT 320V030 9999 OVC007 07/06 Q1020 BECMG BKN010
11:30
I
7 °C 10 km+ 700 ft 310° 310° 6 kt METAR LFSL 291030Z AUTO 31006KT 280V350 9999 OVC007 07/06 Q1020 BECMG BKN015
11:00
I
7 °C 10 km+ 600 ft 310° 310° 3 kt METAR LFSL 291000Z AUTO 31003KT 9999 BKN006 OVC011 07/06 Q1020 TEMPO 0600 FG VV///
10:30
I
6 °C 10 km+ 500 ft Var Var 2 kt METAR LFSL 290930Z AUTO VRB02KT 9999 OVC005 06/06 Q1020 TEMPO 0600 FG VV///
10:00
L
6 °C 9 km 300 ft Var Var 2 kt METAR LFSL 290900Z AUTO VRB02KT 9000 OVC003 06/06 Q1019 TEMPO 0600 FG VV///
09:30
L
6 °C 1,2 km - Var Var 1 kt METAR LFSL 290830Z AUTO VRB01KT 1200 R29/1600U BR VV/// 06/06 Q1019 TEMPO 0600 FG
09:00
L
6 °C 700 m - 350° 350° 1 kt METAR LFSL 290800Z AUTO 35001KT 0700 R29/0900U FG VV/// 06/06 Q1019 TEMPO 0800 FG
08:30
L
6 °C 700 m - Var 000° 0 kt METAR LFSL 290730Z AUTO 00000KT 0750 0700 R29/0900N FG VV/// 06/06 Q1019 TEMPO 0800 FG
08:00
L
6 °C 900 m - 110° 110° 3 kt METAR LFSL 290700Z AUTO 11003KT 1000 0900 R29/1100U BCFG VV/// 06/06 Q1019 NOSIG
07:30
L
6 °C 1,1 km - Var Var 1 kt METAR LFSL 290630Z AUTO VRB01KT 1700 1100 R29/1900D BR VV/// 06/06 Q1019 TEMPO 0800 FG
07:00
L
6 °C 1 km - Var 000° 0 kt METAR LFSL 290600Z AUTO 00000KT 1000 R29/1200N BR VV/// 06/05 Q1019 NOSIG
06:30
L
6 °C 1,2 km - Var Var 2 kt METAR LFSL 290530Z AUTO VRB02KT 1200 R29/1500D BR VV/// 06/05 Q1018 NOSIG
06:00
L
6 °C 2,8 km - Var Var 2 kt METAR LFSL 290500Z AUTO VRB02KT 2800 BR VV/// 06/05 Q1018 TEMPO 0800 FG
05:30
L
6 °C 1,6 km - Var Var 2 kt METAR LFSL 290430Z AUTO VRB02KT 1600 BR VV/// 06/05 Q1018 BECMG BKN003 OVC012
05:00
L
6 °C 3,1 km - Var Var 2 kt METAR LFSL 290400Z AUTO VRB02KT 3100 BR VV/// 06/05 Q1018 BECMG 9999 NSW BKN003 OVC012
04:30
L
6 °C 2,8 km 300 ft Var Var 2 kt METAR LFSL 290330Z AUTO VRB02KT 2800 BR OVC003 06/05 Q1018 BECMG 9999 NSW
04:00
L
6 °C 10 km+ 300 ft Var Var 1 kt METAR LFSL 290300Z AUTO VRB01KT 9999 OVC003 06/05 Q1018
03:30
L
6 °C 10 km+ 400 ft Var Var 1 kt METAR LFSL 290230Z AUTO VRB01KT 9999 OVC004 06/05 Q1018
03:00
I
6 °C 10 km+ 500 ft Var Var 2 kt METAR LFSL 290200Z AUTO VRB02KT 9999 OVC005 06/05 Q1018
02:30
L
6 °C 4,9 km 300 ft Var Var 2 kt METAR LFSL 290130Z AUTO VRB02KT 4900 BR OVC003 06/06 Q1018
02:00
L
6 °C 5 km 200 ft Var Var 2 kt METAR LFSL 290100Z AUTO VRB02KT 5000 BR OVC002 06/06 Q1018
01:30
L
6 °C 8 km 300 ft 310° 310° 3 kt METAR LFSL 290030Z AUTO 31003KT 8000 OVC003 06/06 Q1018
01:00
L
6 °C 1,1 km - Var Var 2 kt METAR LFSL 290000Z AUTO VRB02KT 1100 R29/1300U BR VV/// 06/06 Q1018
00:30
L
5 °C 7 km 200 ft Var Var 1 kt METAR LFSL 282330Z AUTO VRB01KT 7000 OVC002 05/05 Q1018
00:00
L
4 °C 1,7 km 300 ft Var Var 2 kt METAR LFSL 282300Z AUTO VRB02KT 1700 BR OVC003 04/04 Q1018

28 de novembro de 2022

Hora Código Clima Temp. Visibilidade Tecto Vento METAR/SPECI
23:30
L
2 °C 2,8 km - 300° 300° 1 kt METAR LFSL 282230Z AUTO 30001KT 9999 2800 VV/// 02/02 Q1018
23:00
V
2 °C 10 km+ 3.000 ft Var 000° 0 kt METAR LFSL 282200Z AUTO 00000KT 9999 FEW004 BKN030 02/01 Q1018
22:30
L
2 °C 10 km+ - Var 000° 0 kt METAR LFSL 282130Z AUTO 00000KT 9999 VV/// 02/02 Q1018
22:00
V
3 °C 10 km+ - Var 000° 0 kt METAR LFSL 282100Z AUTO 00000KT 9999 NSC 03/02 Q1018 TEMPO 0800 BCFG
21:30
V
3 °C 10 km+ - Var 000° 0 kt METAR LFSL 282030Z AUTO 00000KT 9999 NSC 03/03 Q1018 TEMPO 0800 BCFG
21:00
I
3 °C 4,7 km - Var 000° 0 kt METAR LFSL 282000Z AUTO 00000KT 4700 BR NSC 03/03 Q1018 TEMPO 0800 BCFG
20:30
V
4 °C 10 km+ - Var 000° 0 kt METAR LFSL 281930Z AUTO 00000KT 9999 NSC 04/03 Q1017 TEMPO 0800 BCFG
20:00
V
5 °C 10 km+ - Var 000° 0 kt METAR LFSL 281900Z AUTO 00000KT 9999 NSC 05/04 Q1017 TEMPO 0800 BCFG
19:30
V
6 °C 10 km+ - 270° 270° 2 kt METAR LFSL 281830Z AUTO 27002KT 9999 NSC 06/05 Q1017 TEMPO 0800 BCFG
19:00
V
7 °C 10 km+ 7.600 ft Var Var 3 kt METAR LFSL 281800Z AUTO VRB03KT 9999 SCT034/// SCT056/// BKN076/// //////CB 07/06 Q1017 BECMG NSC
18:30
M
8 °C 7 km 2.300 ft 270° 270° 7 - 18 kt METAR LFSL 281730Z AUTO 27007G18KT 220V330 7000 RA FEW008/// SCT015/// BKN023/// ///TCU 08/07 Q1017 TEMPO BKN005 BECMG NSW
18:00
V
8 °C 10 km+ 5.200 ft 310° 310° 5 kt METAR LFSL 281700Z AUTO 31005KT 260V340 9999 FEW008/// SCT033/// OVC052/// ///CB 08/07 Q1017 TEMPO 2000 SHRA BKN005
17:30
V
8 °C 10 km+ 6.000 ft Var Var 2 kt METAR LFSL 281630Z AUTO VRB02KT 9999 FEW032/// SCT049/// OVC060/// //////CB 08/07 Q1016 TEMPO 2000 SHRA BKN005
17:00
V
8 °C 10 km+ 5.200 ft 190° 190° 3 kt METAR LFSL 281600Z AUTO 19003KT 150V230 9999 -RA FEW029/// SCT044/// OVC052/// ///CB 08/07 Q1016 TEMPO 2000 SHRA FEW010CB BKN013TCU
16:30
V
8 °C 10 km+ 10.000 ft 190° 190° 2 kt METAR LFSL 281530Z AUTO 19002KT 9999 RA FEW042/// SCT060/// BKN100/// //////CB 08/07 Q1016 TEMPO 2000 SHRA FEW010CB BKN013TCU
16:00
V
8 °C 10 km+ 6.800 ft Var Var 3 kt METAR LFSL 281500Z AUTO VRB03KT 9999 FEW031/// SCT040/// BKN068/// ///CB 08/07 Q1016 TEMPO 3000 SHRA SCT005 FEW010CB BKN013TCU
15:30
V
8 °C 10 km+ 4.300 ft Var Var 2 kt METAR LFSL 281430Z AUTO VRB02KT 9999 -RA FEW028/// BKN043/// BKN049/// //////CB 08/07 Q1016 TEMPO 3000 SHRA SCT005 FEW010CB BKN013TCU
15:00
I
10 °C 2,6 km 1.800 ft 270° 270° 9 - 21 kt METAR LFSL 281400Z AUTO 27009G21KT 200V320 9999 2600 +RA BKN018/// BKN027/// BKN035/// //////CB 10/06 Q1016 TEMPO 3000 SHRA SCT005 FEW010CB BKN013TCU
14:30
M
11 °C 10 km+ 2.700 ft 240° 240° 4 kt METAR LFSL 281330Z AUTO 24004KT 200V300 9999 SCT016/// BKN027/// BKN034/// ///CB 11/09 Q1016 TEMPO 3000 SHRA SCT005 FEW010CB BKN013TCU
14:00
M
12 °C 10 km+ 2.100 ft 250° 250° 4 kt METAR LFSL 281300Z AUTO 25004KT 190V300 9999 SCT016/// BKN021/// BKN029/// ///CB 12/08 Q1016 TEMPO 3000 SHRA SCT005 FEW010CB BKN013TCU
13:30
M
11 °C 10 km+ 1.900 ft 260° 260° 6 kt METAR LFSL 281230Z AUTO 26006KT 220V300 9999 FEW011/// BKN019/// BKN024/// //////CB 11/09 Q1016 TEMPO 3000 SHRA BKN005 BKN013TCU
13:00
V
10 °C 10 km+ 3.600 ft Var Var 3 kt METAR LFSL 281200Z AUTO VRB03KT 9999 FEW019/// BKN036/// BKN044/// //////CB 10/09 Q1017 TEMPO 3000 SHRA BKN005 BKN020TCU
12:30
M
11 °C 10 km+ 1.300 ft 230° 230° 4 kt METAR LFSL 281130Z AUTO 23004KT 190V270 9999 BKN013/// BKN019/// BKN042/// //////CB 11/09 Q1017 TEMPO 3000 SHRA BKN005 BKN020TCU
12:00
M
10 °C 10 km+ 1.400 ft Var Var 3 kt METAR LFSL 281100Z AUTO VRB03KT 9999 SCT009/// BKN014/// BKN020/// ///CB 10/09 Q1017 TEMPO 3000 SHRA BKN005 BKN020TCU
11:30
I
10 °C 10 km+ 900 ft Var Var 3 kt METAR LFSL 281030Z AUTO VRB03KT 9999 BKN009 BKN045 10/09 Q1017 TEMPO 3000 SHRA BKN005 BKN020TCU
11:00
I
10 °C 5 km 500 ft 260° 260° 3 kt METAR LFSL 281000Z AUTO 26003KT 180V310 5000 BR BKN005 OVC010 10/09 Q1017 TEMPO SHRA BKN005 BKN020TCU
10:30
M
10 °C 10 km+ 1.400 ft 290° 290° 4 kt METAR LFSL 280930Z AUTO 29004KT 250V310 9999 FEW009 BKN014 BKN024 10/09 Q1017 TEMPO 3000 SHRA BKN005 BKN020TCU
10:00
M
10 °C 10 km+ 1.300 ft 270° 270° 3 kt METAR LFSL 280900Z AUTO 27003KT 220V310 9999 SCT008 BKN013 BKN020 10/09 Q1017 TEMPO 3000 SHRA BKN005 BKN020TCU
09:30
I
9 °C 10 km+ 700 ft 270° 270° 5 kt METAR LFSL 280830Z AUTO 27005KT 230V310 9999 BKN007 OVC016 09/09 Q1017 TEMPO 3000 SHRA BKN005 BKN020TCU
09:00
L
9 °C 10 km+ 400 ft 290° 290° 5 kt METAR LFSL 280800Z AUTO 29005KT 240V320 9999 OVC004 09/09 Q1016 BECMG BKN020
08:30
I
9 °C 10 km+ 500 ft 290° 290° 7 kt METAR LFSL 280730Z AUTO 29007KT 260V320 9999 OVC005/// ///TCU 09/09 Q1016 BECMG BKN020
08:00
I
10 °C 10 km+ 800 ft 280° 280° 5 kt METAR LFSL 280700Z AUTO 28005KT 220V330 9999 BKN008 OVC012 10/09 Q1016 BECMG BKN020
07:30
I
10 °C 10 km+ 900 ft 280° 280° 5 kt METAR LFSL 280630Z AUTO 28005KT 230V310 9999 BKN009/// BKN013/// BKN018/// ///TCU 10/09 Q1016 BECMG BKN020
07:00
I
10 °C 10 km+ 800 ft 260° 260° 5 kt METAR LFSL 280600Z AUTO 26005KT 190V290 9999 BKN008/// BKN012/// OVC022/// //////TCU 10/09 Q1016 TEMPO 3000 RA BECMG BKN020
06:30
I
10 °C 10 km+ 800 ft 250° 250° 4 kt METAR LFSL 280530Z AUTO 25004KT 210V290 9999 BKN008 BKN016 OVC058 10/09 Q1015 TEMPO 3000 RA BECMG BKN020
06:00
I
10 °C 10 km+ 500 ft 230° 230° 4 kt METAR LFSL 280500Z AUTO 23004KT 170V280 9999 OVC005/// //////TCU 10/09 Q1015 TEMPO 3000 RA OVC003
05:30
L
10 °C 10 km+ 300 ft 220° 220° 5 kt METAR LFSL 280430Z AUTO 22005KT 180V280 9999 OVC003/// ///TCU 10/09 Q1015 TEMPO 3000 RA OVC003
05:00
L
10 °C 10 km+ 300 ft 220° 220° 4 kt METAR LFSL 280400Z AUTO 22004KT 170V260 9999 -RA OVC003/// ///TCU 10/09 Q1015 TEMPO 3000 RA OVC003
04:30
V
10 °C 10 km+ 3.500 ft 210° 210° 4 kt METAR LFSL 280330Z AUTO 21004KT 170V240 9999 -RA FEW006/// SCT015/// BKN035/// ///TCU 10/09 Q1015 TEMPO 3000 RA OVC003
04:00
L
9 °C 8 km 400 ft 240° 240° 5 kt METAR LFSL 280300Z AUTO 24005KT 180V300 8000 -RA BKN004/// BKN010/// BKN056/// ///TCU 09/09 Q1015 TEMPO 3000 RA OVC003
03:30
L
9 °C 10 km+ 400 ft 200° 200° 6 kt METAR LFSL 280230Z AUTO 20006KT 160V240 9999 -RA BKN004/// OVC011/// ///TCU 09/09 Q1015 TEMPO 3000 RA OVC003
03:00
L
9 °C 5 km 300 ft 200° 200° 6 kt METAR LFSL 280200Z AUTO 20006KT 160V260 5000 RA BR OVC003/// //////CB 09/09 Q1015
02:30
L
9 °C 9 km 300 ft 180° 180° 8 kt METAR LFSL 280130Z AUTO 18008KT 140V210 9000 RA OVC003/// ///CB 09/09 Q1015
02:00
L
9 °C 8 km 400 ft 170° 170° 7 kt METAR LFSL 280100Z AUTO 17007KT 140V200 8000 -RA OVC004/// ///TCU 09/09 Q1015
01:30
I
9 °C 8 km 500 ft 150° 150° 5 kt METAR LFSL 280030Z AUTO 15005KT 120V180 8000 RA BKN005/// BKN010/// OVC015/// ///CB 09/08 Q1015
01:00
I
9 °C 6 km 800 ft 150° 150° 5 kt METAR LFSL 280000Z AUTO 15005KT 110V180 6000 RA BKN008/// BKN020/// BKN037/// //////CB 09/08 Q1016
00:30
V
9 °C 10 km+ 6.200 ft 140° 140° 6 kt METAR LFSL 272330Z AUTO 14006KT 9999 -RA SCT024/// OVC062/// ///CB 09/07 Q1016
00:00
M
9 °C 10 km+ 2.200 ft 150° 150° 6 kt METAR LFSL 272300Z AUTO 15006KT 120V180 9999 -RA BKN022 BKN052 OVC064 09/07 Q1016

27 de novembro de 2022

Hora Código Clima Temp. Visibilidade Tecto Vento METAR/SPECI
23:30
M
9 °C 10 km+ 2.500 ft 140° 140° 6 kt METAR LFSL 272230Z AUTO 14006KT 110V180 9999 OVC025 09/06 Q1017
23:00
V
9 °C 10 km+ 13.000 ft 150° 150° 6 kt METAR LFSL 272200Z AUTO 15006KT 9999 FEW029 SCT078 BKN130 09/06 Q1016
22:30
V
9 °C 10 km+ - 140° 140° 6 kt METAR LFSL 272130Z AUTO 14006KT CAVOK 09/06 Q1016
22:00
V
9 °C 10 km+ - 150° 150° 6 kt METAR LFSL 272100Z AUTO 15006KT 120V190 CAVOK 09/06 Q1017 NOSIG
21:30
V
9 °C 10 km+ - 160° 160° 7 kt METAR LFSL 272030Z AUTO 16007KT 130V190 CAVOK 09/05 Q1017 NOSIG
21:00
V
9 °C 10 km+ - 170° 170° 7 kt METAR LFSL 272000Z AUTO 17007KT CAVOK 09/06 Q1017 NOSIG
20:30
V
9 °C 10 km+ - 170° 170° 7 kt METAR LFSL 271930Z AUTO 17007KT CAVOK 09/05 Q1017 NOSIG
20:00
V
9 °C 10 km+ - 150° 150° 5 kt METAR LFSL 271900Z AUTO 15005KT CAVOK 09/05 Q1017 NOSIG
19:30
V
9 °C 10 km+ - 140° 140° 5 kt METAR LFSL 271830Z AUTO 14005KT CAVOK 09/05 Q1017 NOSIG
19:00
V
10 °C 10 km+ - 160° 160° 6 kt METAR LFSL 271800Z AUTO 16006KT CAVOK 10/05 Q1017 NOSIG
18:30
V
10 °C 10 km+ - 160° 160° 7 kt METAR LFSL 271730Z AUTO 16007KT CAVOK 10/05 Q1017 NOSIG
18:00
V
10 °C 10 km+ - 150° 150° 6 kt METAR LFSL 271700Z AUTO 15006KT CAVOK 10/04 Q1017 NOSIG
17:30
V
10 °C 10 km+ - 150° 150° 5 kt METAR LFSL 271630Z AUTO 15005KT CAVOK 10/04 Q1017 NOSIG
17:00
V
11 °C 10 km+ - 150° 150° 5 kt METAR LFSL 271600Z AUTO 15005KT 130V190 CAVOK 11/04 Q1017 NOSIG
16:30
V
12 °C 10 km+ - 150° 150° 4 kt METAR LFSL 271530Z AUTO 15004KT 120V180 CAVOK 12/04 Q1018 NOSIG
16:00
V
12 °C 10 km+ - 150° 150° 5 kt METAR LFSL 271500Z AUTO 15005KT 110V170 CAVOK 12/04 Q1018 NOSIG
15:30
V
12 °C 10 km+ - 160° 160° 6 kt METAR LFSL 271430Z AUTO 16006KT 110V190 CAVOK 12/04 Q1018 NOSIG
15:00
V
12 °C 10 km+ - 150° 150° 6 kt METAR LFSL 271400Z AUTO 15006KT 120V190 CAVOK 12/03 Q1018 NOSIG
14:30
V
12 °C 10 km+ - 160° 160° 7 kt METAR LFSL 271330Z AUTO 16007KT 110V180 CAVOK 12/03 Q1019 NOSIG
14:00
V
13 °C 10 km+ - 150° 150° 6 kt METAR LFSL 271300Z AUTO 15006KT 110V180 CAVOK 13/03 Q1019 NOSIG
13:30
V
12 °C 10 km+ - 160° 160° 7 kt METAR LFSL 271230Z AUTO 16007KT 110V190 CAVOK 12/03 Q1020 NOSIG
13:00
V
11 °C 10 km+ - 140° 140° 6 kt METAR LFSL 271200Z AUTO 14006KT 100V170 CAVOK 11/03 Q1020 NOSIG
12:30
V
10 °C 10 km+ - 140° 140° 6 kt METAR LFSL 271130Z AUTO 14006KT CAVOK 10/03 Q1021 NOSIG
12:00
V
10 °C 10 km+ - 140° 140° 6 kt METAR LFSL 271100Z AUTO 14006KT CAVOK 10/03 Q1021 NOSIG
11:30
V
9 °C 10 km+ - 130° 130° 6 kt METAR LFSL 271030Z AUTO 13006KT CAVOK 09/02 Q1022 NOSIG
11:00
V
8 °C 10 km+ - 140° 140° 5 kt METAR LFSL 271000Z AUTO 14005KT 120V180 CAVOK 08/03 Q1022 NOSIG

Nós e terceiros acompanhamos seu comportamento na internet em nosso site com cookies. Se você continuar, nós assumimos que você concorda com nosso política de cookies.